N48CC KCID-KTVC
Flight info
| Callsign | N48CC |
|---|---|
| Flight time | 1h 27m |
| Altitude | VFR |
| Route | |
| Aircraft | BE58/L-VGD/C |
Departure
| Time | 2026-04-12 03:18 |
|---|---|
| Airport | The Eastern Iowa Airport (KCID) |
Arrival
| Time | 2026-04-12 04:46 |
|---|---|
| Airport | Cherry Capital Airport (KTVC) |
| Time | Latitude | Longitude | Altitude | Speed | Heading |
|---|---|---|---|---|---|
| 2026-04-12 03:08 | 41.88742 | -91.71553 | 868 ft | 0 kts | 90° |
| 2026-04-12 03:12 | 41.88742 | -91.71552 | 868 ft | 0 kts | 90° |
| 2026-04-12 03:13 | 41.88729 | -91.71501 | 868 ft | 9 kts | 159° |
| 2026-04-12 03:13 | 41.88641 | -91.71501 | 865 ft | 13 kts | 182° |
| 2026-04-12 03:13 | 41.88586 | -91.71563 | 864 ft | 14 kts | 272° |
| 2026-04-12 03:14 | 41.88588 | -91.71690 | 866 ft | 16 kts | 270° |
| 2026-04-12 03:14 | 41.88590 | -91.71844 | 865 ft | 20 kts | 270° |
| 2026-04-12 03:14 | 41.88592 | -91.72084 | 864 ft | 29 kts | 271° |
| 2026-04-12 03:14 | 41.88596 | -91.72338 | 864 ft | 26 kts | 271° |
| 2026-04-12 03:15 | 41.88600 | -91.72567 | 862 ft | 23 kts | 272° |
| 2026-04-12 03:15 | 41.88601 | -91.72756 | 864 ft | 18 kts | 271° |
| 2026-04-12 03:15 | 41.88579 | -91.72897 | 863 ft | 15 kts | 205° |
| 2026-04-12 03:15 | 41.88549 | -91.72903 | 863 ft | 0 kts | 182° |
| 2026-04-12 03:16 | 41.88544 | -91.72903 | 863 ft | 0 kts | 181° |
| 2026-04-12 03:17 | 41.88474 | -91.72876 | 854 ft | 21 kts | 130° |
| 2026-04-12 03:17 | 41.88465 | -91.72840 | 859 ft | 0 kts | 90° |
| 2026-04-12 03:18 | 41.88465 | -91.72838 | 859 ft | 5 kts | 90° |
| 2026-04-12 03:18 | 41.88459 | -91.72362 | 866 ft | 90 kts | 91° |
| 2026-04-12 03:18 | 41.88444 | -91.71398 | 1128 ft | 110 kts | 96° |
| 2026-04-12 03:18 | 41.88298 | -91.70382 | 1527 ft | 115 kts | 106° |
| 2026-04-12 03:19 | 41.88387 | -91.69272 | 1889 ft | 129 kts | 85° |
| 2026-04-12 03:19 | 41.88646 | -91.67962 | 1791 ft | 164 kts | 82° |
| 2026-04-12 03:19 | 41.88920 | -91.66362 | 1694 ft | 186 kts | 82° |
| 2026-04-12 03:19 | 41.89187 | -91.64689 | 2014 ft | 178 kts | 88° |
| 2026-04-12 03:20 | 41.89448 | -91.63095 | 2398 ft | 173 kts | 89° |
| 2026-04-12 03:20 | 41.89773 | -91.61533 | 2762 ft | 173 kts | 87° |
| 2026-04-12 03:20 | 41.90110 | -91.59982 | 3122 ft | 173 kts | 87° |
| 2026-04-12 03:20 | 41.90445 | -91.58425 | 3478 ft | 174 kts | 86° |
| 2026-04-12 03:21 | 41.90769 | -91.56852 | 3772 ft | 178 kts | 86° |
| 2026-04-12 03:21 | 41.91377 | -91.55314 | 3990 ft | 195 kts | 60° |
| 2026-04-12 03:21 | 41.92202 | -91.53784 | 4007 ft | 209 kts | 60° |
| 2026-04-12 03:21 | 41.93055 | -91.52137 | 4009 ft | 220 kts | 61° |
| 2026-04-12 03:22 | 41.93940 | -91.50420 | 4012 ft | 227 kts | 59° |
| 2026-04-12 03:22 | 41.94908 | -91.48706 | 4014 ft | 232 kts | 58° |
| 2026-04-12 03:22 | 41.95873 | -91.46957 | 4012 ft | 233 kts | 58° |
| 2026-04-12 03:22 | 41.96840 | -91.45200 | 4015 ft | 235 kts | 58° |
| 2026-04-12 03:23 | 41.97824 | -91.43437 | 4011 ft | 236 kts | 58° |
| 2026-04-12 03:23 | 41.98801 | -91.41697 | 4014 ft | 236 kts | 58° |
| 2026-04-12 03:23 | 41.99785 | -91.39928 | 4012 ft | 237 kts | 58° |
| 2026-04-12 03:23 | 42.00792 | -91.38136 | 4014 ft | 237 kts | 58° |
| 2026-04-12 03:24 | 42.01773 | -91.36394 | 4021 ft | 237 kts | 58° |
| 2026-04-12 03:24 | 42.02771 | -91.34631 | 4022 ft | 237 kts | 57° |
| 2026-04-12 03:24 | 42.03761 | -91.32866 | 4020 ft | 237 kts | 57° |
| 2026-04-12 03:24 | 42.04752 | -91.31085 | 4017 ft | 237 kts | 58° |
| 2026-04-12 03:25 | 42.05750 | -91.29312 | 4026 ft | 237 kts | 57° |
| 2026-04-12 03:25 | 42.06745 | -91.27541 | 4026 ft | 237 kts | 57° |
| 2026-04-12 03:25 | 42.07738 | -91.25762 | 4024 ft | 237 kts | 58° |
| 2026-04-12 03:25 | 42.08724 | -91.23989 | 4022 ft | 236 kts | 58° |
| 2026-04-12 03:26 | 42.09719 | -91.22219 | 4035 ft | 237 kts | 57° |
| 2026-04-12 03:26 | 42.10718 | -91.20451 | 4035 ft | 237 kts | 57° |
| 2026-04-12 03:26 | 42.11700 | -91.18698 | 4037 ft | 237 kts | 57° |
| 2026-04-12 03:26 | 42.12694 | -91.16921 | 4033 ft | 237 kts | 58° |
| 2026-04-12 03:27 | 42.13694 | -91.15151 | 4036 ft | 238 kts | 57° |
| 2026-04-12 03:27 | 42.14693 | -91.13372 | 4028 ft | 238 kts | 57° |
| 2026-04-12 03:27 | 42.15690 | -91.11594 | 4027 ft | 238 kts | 58° |
| 2026-04-12 03:27 | 42.16694 | -91.09824 | 4025 ft | 237 kts | 58° |
| 2026-04-12 03:28 | 42.17697 | -91.08061 | 4026 ft | 237 kts | 57° |
| 2026-04-12 03:28 | 42.18692 | -91.06305 | 4031 ft | 234 kts | 58° |
| 2026-04-12 03:28 | 42.19673 | -91.04550 | 4008 ft | 234 kts | 58° |
| 2026-04-12 03:28 | 42.20668 | -91.02796 | 4008 ft | 236 kts | 57° |
| 2026-04-12 03:29 | 42.21671 | -91.01035 | 4004 ft | 236 kts | 57° |
| 2026-04-12 03:29 | 42.22336 | -90.99870 | 4008 ft | 237 kts | 57° |
| 2026-04-12 03:29 | 42.23342 | -90.98096 | 4011 ft | 238 kts | 57° |
| 2026-04-12 03:29 | 42.24350 | -90.96319 | 4016 ft | 239 kts | 57° |
| 2026-04-12 03:30 | 42.25355 | -90.94535 | 4014 ft | 238 kts | 57° |
| 2026-04-12 03:30 | 42.26355 | -90.92757 | 4039 ft | 238 kts | 58° |
| 2026-04-12 03:30 | 42.27365 | -90.90986 | 4042 ft | 237 kts | 57° |
| 2026-04-12 03:30 | 42.28691 | -90.88637 | 4034 ft | 238 kts | 57° |
| 2026-04-12 03:31 | 42.29369 | -90.87433 | 4028 ft | 239 kts | 57° |
| 2026-04-12 03:31 | 42.30381 | -90.85653 | 4030 ft | 238 kts | 57° |
| 2026-04-12 03:31 | 42.31374 | -90.83914 | 4028 ft | 236 kts | 57° |
| 2026-04-12 03:31 | 42.32367 | -90.82152 | 4030 ft | 236 kts | 58° |
| 2026-04-12 03:32 | 42.33362 | -90.80396 | 4028 ft | 235 kts | 57° |
| 2026-04-12 03:32 | 42.34358 | -90.78646 | 4030 ft | 235 kts | 57° |
| 2026-04-12 03:32 | 42.35352 | -90.76890 | 4027 ft | 236 kts | 58° |
| 2026-04-12 03:32 | 42.36351 | -90.75130 | 4023 ft | 236 kts | 58° |
| 2026-04-12 03:33 | 42.37346 | -90.73368 | 4023 ft | 236 kts | 58° |
| 2026-04-12 03:33 | 42.38344 | -90.71604 | 4023 ft | 236 kts | 58° |
| 2026-04-12 03:33 | 42.39340 | -90.69844 | 4024 ft | 235 kts | 58° |
| 2026-04-12 03:33 | 42.40335 | -90.68088 | 4024 ft | 235 kts | 58° |
| 2026-04-12 03:34 | 42.41332 | -90.66332 | 4031 ft | 236 kts | 58° |
| 2026-04-12 03:34 | 42.42337 | -90.64570 | 4028 ft | 237 kts | 57° |
| 2026-04-12 03:34 | 42.43349 | -90.62799 | 4026 ft | 238 kts | 57° |
| 2026-04-12 03:34 | 42.44361 | -90.61030 | 4029 ft | 238 kts | 57° |
| 2026-04-12 03:35 | 42.45361 | -90.59247 | 4037 ft | 237 kts | 59° |
| 2026-04-12 03:35 | 42.46371 | -90.57470 | 4027 ft | 239 kts | 57° |
| 2026-04-12 03:35 | 42.47401 | -90.55718 | 4031 ft | 231 kts | 57° |
| 2026-04-12 03:35 | 42.48381 | -90.54028 | 4029 ft | 230 kts | 58° |
| 2026-04-12 03:36 | 42.49365 | -90.52293 | 4031 ft | 234 kts | 58° |
| 2026-04-12 03:36 | 42.50365 | -90.50541 | 4028 ft | 236 kts | 58° |
| 2026-04-12 03:36 | 42.51376 | -90.48777 | 4037 ft | 238 kts | 58° |
| 2026-04-12 03:36 | 42.52397 | -90.46999 | 4041 ft | 239 kts | 58° |
| 2026-04-12 03:37 | 42.53401 | -90.45238 | 4046 ft | 239 kts | 57° |
| 2026-04-12 03:37 | 42.54415 | -90.43459 | 4043 ft | 238 kts | 58° |
| 2026-04-12 03:37 | 42.55437 | -90.41674 | 4044 ft | 239 kts | 57° |
| 2026-04-12 03:37 | 42.56457 | -90.39889 | 4041 ft | 239 kts | 57° |
| 2026-04-12 03:38 | 42.57472 | -90.38109 | 4026 ft | 238 kts | 57° |
| 2026-04-12 03:38 | 42.58485 | -90.36337 | 4031 ft | 237 kts | 57° |
| 2026-04-12 03:38 | 42.59489 | -90.34572 | 4030 ft | 236 kts | 57° |
| 2026-04-12 03:38 | 42.60486 | -90.32804 | 4029 ft | 236 kts | 58° |
| 2026-04-12 03:39 | 42.61474 | -90.31022 | 4036 ft | 237 kts | 58° |
| 2026-04-12 03:39 | 42.62462 | -90.29242 | 4041 ft | 236 kts | 58° |
| 2026-04-12 03:39 | 42.63448 | -90.27467 | 4036 ft | 235 kts | 58° |
| 2026-04-12 03:39 | 42.64433 | -90.25703 | 4035 ft | 234 kts | 58° |
| 2026-04-12 03:40 | 42.65415 | -90.23943 | 4038 ft | 234 kts | 58° |
| 2026-04-12 03:40 | 42.66399 | -90.22179 | 4040 ft | 234 kts | 58° |
| 2026-04-12 03:40 | 42.67382 | -90.20419 | 4039 ft | 234 kts | 58° |
| 2026-04-12 03:40 | 42.68365 | -90.18659 | 4040 ft | 234 kts | 58° |
| 2026-04-12 03:41 | 42.69350 | -90.16899 | 4039 ft | 234 kts | 58° |
| 2026-04-12 03:41 | 42.70331 | -90.15140 | 4041 ft | 233 kts | 58° |
| 2026-04-12 03:41 | 42.71304 | -90.13403 | 4041 ft | 235 kts | 58° |
| 2026-04-12 03:41 | 42.72296 | -90.11632 | 4040 ft | 236 kts | 58° |
| 2026-04-12 03:42 | 42.73288 | -90.09854 | 4040 ft | 236 kts | 58° |
| 2026-04-12 03:42 | 42.74272 | -90.08077 | 4043 ft | 235 kts | 58° |
| 2026-04-12 03:42 | 42.75254 | -90.06293 | 4041 ft | 235 kts | 59° |
| 2026-04-12 03:42 | 42.76229 | -90.04505 | 4043 ft | 235 kts | 59° |
| 2026-04-12 03:43 | 42.77198 | -90.02716 | 4043 ft | 235 kts | 58° |
| 2026-04-12 03:43 | 42.78164 | -90.00924 | 4047 ft | 235 kts | 59° |
| 2026-04-12 03:43 | 42.79136 | -89.99134 | 4050 ft | 236 kts | 59° |
| 2026-04-12 03:43 | 42.80105 | -89.97344 | 4057 ft | 233 kts | 59° |
| 2026-04-12 03:44 | 42.81065 | -89.95573 | 4047 ft | 231 kts | 59° |
| 2026-04-12 03:44 | 42.82019 | -89.93821 | 4061 ft | 231 kts | 59° |
| 2026-04-12 03:44 | 42.82978 | -89.92062 | 4056 ft | 231 kts | 59° |
| 2026-04-12 03:44 | 42.83936 | -89.90302 | 4048 ft | 230 kts | 61° |
| 2026-04-12 03:45 | 42.84874 | -89.88598 | 4057 ft | 229 kts | 58° |
| 2026-04-12 03:45 | 42.85841 | -89.86867 | 4059 ft | 230 kts | 58° |
| 2026-04-12 03:45 | 42.86801 | -89.85114 | 4057 ft | 232 kts | 59° |
| 2026-04-12 03:45 | 42.87776 | -89.83358 | 4061 ft | 232 kts | 59° |
| 2026-04-12 03:46 | 42.88732 | -89.81592 | 4044 ft | 230 kts | 57° |
| 2026-04-12 03:46 | 42.89674 | -89.79844 | 4059 ft | 228 kts | 59° |
| 2026-04-12 03:46 | 42.90623 | -89.78106 | 4057 ft | 229 kts | 60° |
| 2026-04-12 03:46 | 42.91565 | -89.76354 | 4058 ft | 228 kts | 60° |
| 2026-04-12 03:47 | 42.92485 | -89.74589 | 4066 ft | 229 kts | 59° |
| 2026-04-12 03:47 | 42.93440 | -89.72848 | 4065 ft | 230 kts | 58° |
| 2026-04-12 03:47 | 42.94409 | -89.71109 | 4064 ft | 230 kts | 58° |
| 2026-04-12 03:47 | 42.95384 | -89.69362 | 4064 ft | 231 kts | 58° |
| 2026-04-12 03:48 | 42.96354 | -89.67607 | 4067 ft | 231 kts | 58° |
| 2026-04-12 03:48 | 42.97326 | -89.65844 | 4063 ft | 233 kts | 58° |
| 2026-04-12 03:48 | 42.98293 | -89.64100 | 4068 ft | 233 kts | 58° |
| 2026-04-12 03:48 | 42.99272 | -89.62325 | 4066 ft | 234 kts | 58° |
| 2026-04-12 03:49 | 43.00240 | -89.60550 | 4069 ft | 233 kts | 59° |
| 2026-04-12 03:49 | 43.01218 | -89.58786 | 4072 ft | 233 kts | 58° |
| 2026-04-12 03:49 | 43.02194 | -89.57021 | 4077 ft | 234 kts | 58° |
| 2026-04-12 03:49 | 43.03195 | -89.55254 | 4068 ft | 236 kts | 57° |
| 2026-04-12 03:50 | 43.04202 | -89.53484 | 4074 ft | 236 kts | 58° |
| 2026-04-12 03:50 | 43.05184 | -89.51689 | 4080 ft | 236 kts | 59° |
| 2026-04-12 03:50 | 43.06185 | -89.49894 | 4079 ft | 238 kts | 59° |
| 2026-04-12 03:50 | 43.07193 | -89.48095 | 4075 ft | 238 kts | 58° |
| 2026-04-12 03:51 | 43.08181 | -89.46288 | 4075 ft | 237 kts | 58° |
| 2026-04-12 03:51 | 43.09180 | -89.44488 | 4077 ft | 237 kts | 58° |
| 2026-04-12 03:51 | 43.10184 | -89.42699 | 4078 ft | 237 kts | 58° |
| 2026-04-12 03:51 | 43.11189 | -89.40909 | 4075 ft | 237 kts | 57° |
| 2026-04-12 03:52 | 43.12188 | -89.39107 | 4077 ft | 237 kts | 58° |
| 2026-04-12 03:52 | 43.13166 | -89.37327 | 4078 ft | 237 kts | 58° |
| 2026-04-12 03:52 | 43.14166 | -89.35533 | 4077 ft | 236 kts | 58° |
| 2026-04-12 03:52 | 43.15164 | -89.33750 | 4078 ft | 236 kts | 58° |
| 2026-04-12 03:53 | 43.16155 | -89.31958 | 4077 ft | 236 kts | 58° |
| 2026-04-12 03:53 | 43.17152 | -89.30173 | 4078 ft | 236 kts | 58° |
| 2026-04-12 03:53 | 43.18151 | -89.28392 | 4075 ft | 236 kts | 57° |
| 2026-04-12 03:53 | 43.19142 | -89.26595 | 4075 ft | 236 kts | 58° |
| 2026-04-12 03:54 | 43.20128 | -89.24810 | 4077 ft | 234 kts | 58° |
| 2026-04-12 03:54 | 43.21112 | -89.23038 | 4064 ft | 233 kts | 58° |
| 2026-04-12 03:54 | 43.22088 | -89.21271 | 4064 ft | 232 kts | 58° |
| 2026-04-12 03:54 | 43.23063 | -89.19519 | 4078 ft | 231 kts | 58° |
| 2026-04-12 03:55 | 43.24046 | -89.17769 | 4077 ft | 232 kts | 58° |
| 2026-04-12 03:55 | 43.25021 | -89.16019 | 4078 ft | 231 kts | 58° |
| 2026-04-12 03:55 | 43.25998 | -89.14266 | 4079 ft | 231 kts | 58° |
| 2026-04-12 03:55 | 43.26988 | -89.12514 | 4070 ft | 232 kts | 58° |
| 2026-04-12 03:56 | 43.27975 | -89.10757 | 4077 ft | 232 kts | 58° |
| 2026-04-12 03:56 | 43.28960 | -89.08999 | 4073 ft | 232 kts | 58° |
| 2026-04-12 03:56 | 43.29954 | -89.07252 | 4077 ft | 233 kts | 58° |
| 2026-04-12 03:56 | 43.30948 | -89.05499 | 4082 ft | 233 kts | 58° |
| 2026-04-12 03:57 | 43.31924 | -89.03727 | 4074 ft | 232 kts | 59° |
| 2026-04-12 03:57 | 43.32875 | -89.01934 | 4076 ft | 232 kts | 60° |
| 2026-04-12 03:57 | 43.33819 | -89.00164 | 4080 ft | 232 kts | 60° |
| 2026-04-12 03:57 | 43.34773 | -88.98369 | 4072 ft | 232 kts | 59° |
| 2026-04-12 03:58 | 43.35722 | -88.96570 | 4079 ft | 232 kts | 60° |
| 2026-04-12 03:58 | 43.36675 | -88.94775 | 4078 ft | 233 kts | 60° |
| 2026-04-12 03:58 | 43.37633 | -88.92967 | 4086 ft | 234 kts | 60° |
| 2026-04-12 03:58 | 43.38592 | -88.91156 | 4084 ft | 234 kts | 59° |
| 2026-04-12 03:59 | 43.39553 | -88.89347 | 4084 ft | 234 kts | 59° |
| 2026-04-12 03:59 | 43.40515 | -88.87538 | 4089 ft | 235 kts | 59° |
| 2026-04-12 03:59 | 43.41476 | -88.85723 | 4089 ft | 235 kts | 60° |
| 2026-04-12 03:59 | 43.42436 | -88.83912 | 4077 ft | 234 kts | 59° |
| 2026-04-12 04:00 | 43.43373 | -88.82132 | 4083 ft | 231 kts | 60° |
| 2026-04-12 04:00 | 43.44319 | -88.80357 | 4080 ft | 229 kts | 59° |
| 2026-04-12 04:00 | 43.45261 | -88.78594 | 4084 ft | 228 kts | 60° |
| 2026-04-12 04:00 | 43.46202 | -88.76840 | 4089 ft | 227 kts | 59° |
| 2026-04-12 04:01 | 43.47139 | -88.75097 | 4082 ft | 226 kts | 59° |
| 2026-04-12 04:01 | 43.48074 | -88.73350 | 4090 ft | 226 kts | 59° |
| 2026-04-12 04:01 | 43.49008 | -88.71602 | 4086 ft | 226 kts | 59° |
| 2026-04-12 04:01 | 43.49943 | -88.69858 | 4088 ft | 225 kts | 59° |
| 2026-04-12 04:02 | 43.50874 | -88.68119 | 4086 ft | 226 kts | 59° |
| 2026-04-12 04:02 | 43.52748 | -88.64643 | 4082 ft | 225 kts | 59° |
| 2026-04-12 04:02 | 43.53682 | -88.62915 | 4082 ft | 225 kts | 59° |
| 2026-04-12 04:03 | 43.54603 | -88.61207 | 4086 ft | 225 kts | 59° |
| 2026-04-12 04:03 | 43.55539 | -88.59475 | 4091 ft | 225 kts | 59° |
| 2026-04-12 04:03 | 43.56476 | -88.57737 | 4092 ft | 226 kts | 59° |
| 2026-04-12 04:03 | 43.57413 | -88.55998 | 4095 ft | 226 kts | 59° |
| 2026-04-12 04:04 | 43.58347 | -88.54258 | 4088 ft | 226 kts | 59° |
| 2026-04-12 04:04 | 43.59282 | -88.52516 | 4090 ft | 226 kts | 59° |
| 2026-04-12 04:04 | 43.60222 | -88.50775 | 4080 ft | 226 kts | 59° |
| 2026-04-12 04:04 | 43.61161 | -88.49039 | 4080 ft | 226 kts | 59° |
| 2026-04-12 04:05 | 43.62095 | -88.47300 | 4080 ft | 225 kts | 59° |
| 2026-04-12 04:05 | 43.63028 | -88.45568 | 4072 ft | 225 kts | 59° |
| 2026-04-12 04:05 | 43.63967 | -88.43837 | 4076 ft | 225 kts | 59° |
| 2026-04-12 04:05 | 43.64910 | -88.42112 | 4067 ft | 225 kts | 59° |
| 2026-04-12 04:06 | 43.65852 | -88.40387 | 4072 ft | 225 kts | 59° |
| 2026-04-12 04:06 | 43.66793 | -88.38657 | 4070 ft | 225 kts | 59° |
| 2026-04-12 04:06 | 43.67737 | -88.36928 | 4069 ft | 226 kts | 59° |
| 2026-04-12 04:06 | 43.68678 | -88.35190 | 4072 ft | 225 kts | 59° |
| 2026-04-12 04:07 | 43.69618 | -88.33456 | 4072 ft | 226 kts | 59° |
| 2026-04-12 04:07 | 43.70556 | -88.31711 | 4074 ft | 226 kts | 59° |
| 2026-04-12 04:07 | 43.71481 | -88.29993 | 4077 ft | 225 kts | 59° |
| 2026-04-12 04:07 | 43.72418 | -88.28267 | 4077 ft | 225 kts | 59° |
| 2026-04-12 04:08 | 43.73359 | -88.26539 | 4079 ft | 225 kts | 59° |
| 2026-04-12 04:08 | 43.74300 | -88.24815 | 4071 ft | 225 kts | 59° |
| 2026-04-12 04:08 | 43.75240 | -88.23091 | 4080 ft | 225 kts | 59° |
| 2026-04-12 04:08 | 43.76181 | -88.21364 | 4077 ft | 224 kts | 60° |
| 2026-04-12 04:09 | 43.77079 | -88.19604 | 4085 ft | 224 kts | 62° |
| 2026-04-12 04:09 | 43.77957 | -88.17823 | 4081 ft | 224 kts | 62° |
| 2026-04-12 04:09 | 43.78837 | -88.16037 | 4088 ft | 225 kts | 62° |
| 2026-04-12 04:09 | 43.79719 | -88.14257 | 4094 ft | 224 kts | 62° |
| 2026-04-12 04:10 | 43.80597 | -88.12479 | 4098 ft | 224 kts | 62° |
| 2026-04-12 04:10 | 43.81477 | -88.10697 | 4096 ft | 225 kts | 62° |
| 2026-04-12 04:10 | 43.82355 | -88.08909 | 4090 ft | 225 kts | 63° |
| 2026-04-12 04:10 | 43.83242 | -88.07136 | 4095 ft | 223 kts | 62° |
| 2026-04-12 04:11 | 43.84134 | -88.05377 | 4095 ft | 223 kts | 62° |
| 2026-04-12 04:11 | 43.85023 | -88.03624 | 4093 ft | 222 kts | 62° |
| 2026-04-12 04:11 | 43.85912 | -88.01872 | 4089 ft | 222 kts | 62° |
| 2026-04-12 04:11 | 43.86795 | -88.00147 | 4093 ft | 222 kts | 62° |
| 2026-04-12 04:12 | 43.87689 | -87.98397 | 4093 ft | 223 kts | 62° |
| 2026-04-12 04:12 | 43.88581 | -87.96646 | 4094 ft | 222 kts | 62° |
| 2026-04-12 04:12 | 43.89471 | -87.94895 | 4095 ft | 222 kts | 62° |
| 2026-04-12 04:12 | 43.90366 | -87.93143 | 4097 ft | 223 kts | 62° |
| 2026-04-12 04:13 | 43.91258 | -87.91388 | 4100 ft | 223 kts | 62° |
| 2026-04-12 04:13 | 43.92155 | -87.89629 | 4100 ft | 223 kts | 62° |
| 2026-04-12 04:13 | 43.93050 | -87.87876 | 4102 ft | 223 kts | 62° |
| 2026-04-12 04:13 | 43.93945 | -87.86120 | 4104 ft | 223 kts | 62° |
| 2026-04-12 04:14 | 43.94841 | -87.84365 | 4099 ft | 223 kts | 62° |
| 2026-04-12 04:14 | 43.95740 | -87.82609 | 4099 ft | 223 kts | 62° |
| 2026-04-12 04:14 | 43.96637 | -87.80855 | 4123 ft | 223 kts | 62° |
| 2026-04-12 04:14 | 43.97537 | -87.79100 | 4112 ft | 223 kts | 62° |
| 2026-04-12 04:15 | 43.98437 | -87.77354 | 4119 ft | 223 kts | 62° |
| 2026-04-12 04:15 | 43.99339 | -87.75598 | 4119 ft | 223 kts | 62° |
| 2026-04-12 04:15 | 44.00238 | -87.73844 | 4111 ft | 223 kts | 62° |
| 2026-04-12 04:15 | 44.01139 | -87.72093 | 4118 ft | 223 kts | 62° |
| 2026-04-12 04:16 | 44.02043 | -87.70342 | 4109 ft | 223 kts | 61° |
| 2026-04-12 04:16 | 44.02635 | -87.69180 | 4120 ft | 222 kts | 62° |
| 2026-04-12 04:16 | 44.03815 | -87.66850 | 4114 ft | 222 kts | 62° |
| 2026-04-12 04:16 | 44.04704 | -87.65095 | 4111 ft | 222 kts | 62° |
| 2026-04-12 04:17 | 44.05591 | -87.63337 | 4116 ft | 221 kts | 62° |
| 2026-04-12 04:17 | 44.06477 | -87.61585 | 4112 ft | 221 kts | 62° |
| 2026-04-12 04:17 | 44.07077 | -87.60404 | 4113 ft | 221 kts | 62° |
| 2026-04-12 04:17 | 44.07964 | -87.58658 | 4114 ft | 221 kts | 62° |
| 2026-04-12 04:18 | 44.08853 | -87.56913 | 4113 ft | 221 kts | 62° |
| 2026-04-12 04:18 | 44.09732 | -87.55189 | 4114 ft | 221 kts | 61° |
| 2026-04-12 04:18 | 44.10616 | -87.53441 | 4118 ft | 221 kts | 62° |
| 2026-04-12 04:18 | 44.11499 | -87.51696 | 4116 ft | 221 kts | 62° |
| 2026-04-12 04:19 | 44.12389 | -87.49951 | 4111 ft | 221 kts | 61° |
| 2026-04-12 04:19 | 44.13276 | -87.48202 | 4119 ft | 221 kts | 62° |
| 2026-04-12 04:19 | 44.14166 | -87.46454 | 4122 ft | 221 kts | 62° |
| 2026-04-12 04:19 | 44.15056 | -87.44709 | 4114 ft | 221 kts | 61° |
| 2026-04-12 04:20 | 44.15943 | -87.42960 | 4123 ft | 221 kts | 61° |
| 2026-04-12 04:20 | 44.16832 | -87.41213 | 4121 ft | 221 kts | 61° |
| 2026-04-12 04:20 | 44.17726 | -87.39466 | 4125 ft | 221 kts | 62° |
| 2026-04-12 04:20 | 44.18618 | -87.37722 | 4127 ft | 221 kts | 62° |
| 2026-04-12 04:21 | 44.19510 | -87.35971 | 4123 ft | 221 kts | 61° |
| 2026-04-12 04:21 | 44.20408 | -87.34219 | 4130 ft | 222 kts | 61° |
| 2026-04-12 04:21 | 44.21312 | -87.32462 | 4129 ft | 223 kts | 61° |
| 2026-04-12 04:21 | 44.22187 | -87.30710 | 4130 ft | 223 kts | 63° |
| 2026-04-12 04:22 | 44.23035 | -87.28873 | 4135 ft | 222 kts | 64° |
| 2026-04-12 04:22 | 44.23852 | -87.27077 | 4134 ft | 222 kts | 64° |
| 2026-04-12 04:22 | 44.24683 | -87.25259 | 4137 ft | 222 kts | 64° |
| 2026-04-12 04:22 | 44.25511 | -87.23442 | 4136 ft | 222 kts | 64° |
| 2026-04-12 04:23 | 44.26334 | -87.21621 | 4136 ft | 222 kts | 64° |
| 2026-04-12 04:23 | 44.27154 | -87.19799 | 4140 ft | 221 kts | 65° |
| 2026-04-12 04:23 | 44.27962 | -87.17971 | 4139 ft | 221 kts | 65° |
| 2026-04-12 04:23 | 44.28765 | -87.16137 | 4138 ft | 221 kts | 65° |
| 2026-04-12 04:24 | 44.29568 | -87.14305 | 4136 ft | 221 kts | 65° |
| 2026-04-12 04:24 | 44.30372 | -87.12480 | 4131 ft | 221 kts | 65° |
| 2026-04-12 04:24 | 44.31175 | -87.10652 | 4140 ft | 221 kts | 65° |
| 2026-04-12 04:24 | 44.31977 | -87.08819 | 4143 ft | 221 kts | 65° |
| 2026-04-12 04:25 | 44.32785 | -87.06989 | 4141 ft | 221 kts | 65° |
| 2026-04-12 04:25 | 44.33590 | -87.05161 | 4138 ft | 221 kts | 65° |
| 2026-04-12 04:25 | 44.34394 | -87.03326 | 4141 ft | 221 kts | 65° |
| 2026-04-12 04:25 | 44.35197 | -87.01494 | 4139 ft | 221 kts | 65° |
| 2026-04-12 04:26 | 44.36000 | -86.99658 | 4146 ft | 221 kts | 65° |
| 2026-04-12 04:26 | 44.36803 | -86.97824 | 4146 ft | 221 kts | 65° |
| 2026-04-12 04:26 | 44.37606 | -86.95991 | 4147 ft | 221 kts | 65° |
| 2026-04-12 04:26 | 44.38409 | -86.94161 | 4135 ft | 220 kts | 65° |
| 2026-04-12 04:27 | 44.39200 | -86.92331 | 4137 ft | 219 kts | 65° |
| 2026-04-12 04:27 | 44.39983 | -86.90504 | 4142 ft | 219 kts | 65° |
| 2026-04-12 04:27 | 44.40769 | -86.88679 | 4134 ft | 219 kts | 65° |
| 2026-04-12 04:27 | 44.41431 | -86.86784 | 4134 ft | 216 kts | 73° |
| 2026-04-12 04:28 | 44.42013 | -86.84853 | 4143 ft | 215 kts | 74° |
| 2026-04-12 04:28 | 44.42583 | -86.82947 | 4140 ft | 216 kts | 74° |
| 2026-04-12 04:28 | 44.43160 | -86.81010 | 4140 ft | 215 kts | 74° |
| 2026-04-12 04:28 | 44.43738 | -86.79077 | 4146 ft | 215 kts | 74° |
| 2026-04-12 04:29 | 44.44315 | -86.77143 | 4149 ft | 215 kts | 74° |
| 2026-04-12 04:29 | 44.44891 | -86.75210 | 4146 ft | 215 kts | 74° |
| 2026-04-12 04:29 | 44.45470 | -86.73273 | 4149 ft | 215 kts | 74° |
| 2026-04-12 04:29 | 44.46048 | -86.71342 | 4149 ft | 215 kts | 74° |
| 2026-04-12 04:30 | 44.46629 | -86.69412 | 4145 ft | 215 kts | 74° |
| 2026-04-12 04:30 | 44.47213 | -86.67484 | 4152 ft | 215 kts | 73° |
| 2026-04-12 04:30 | 44.47796 | -86.65553 | 4145 ft | 215 kts | 74° |
| 2026-04-12 04:30 | 44.48381 | -86.63618 | 4153 ft | 216 kts | 74° |
| 2026-04-12 04:31 | 44.48958 | -86.61708 | 4155 ft | 216 kts | 73° |
| 2026-04-12 04:31 | 44.49540 | -86.59773 | 4151 ft | 215 kts | 73° |
| 2026-04-12 04:31 | 44.50122 | -86.57841 | 4154 ft | 215 kts | 73° |
| 2026-04-12 04:31 | 44.50703 | -86.55908 | 4151 ft | 215 kts | 73° |
| 2026-04-12 04:32 | 44.51282 | -86.53979 | 4151 ft | 215 kts | 73° |
| 2026-04-12 04:32 | 44.51863 | -86.52042 | 4150 ft | 215 kts | 73° |
| 2026-04-12 04:32 | 44.52443 | -86.50106 | 4150 ft | 215 kts | 74° |
| 2026-04-12 04:32 | 44.53027 | -86.48175 | 4154 ft | 215 kts | 73° |
| 2026-04-12 04:33 | 44.53614 | -86.46238 | 4157 ft | 216 kts | 73° |
| 2026-04-12 04:33 | 44.54196 | -86.44304 | 4155 ft | 215 kts | 73° |
| 2026-04-12 04:33 | 44.54781 | -86.42367 | 4156 ft | 215 kts | 73° |
| 2026-04-12 04:33 | 44.55365 | -86.40432 | 4158 ft | 215 kts | 75° |
| 2026-04-12 04:34 | 44.55922 | -86.38484 | 4158 ft | 216 kts | 76° |
| 2026-04-12 04:34 | 44.56490 | -86.36519 | 4155 ft | 218 kts | 75° |
| 2026-04-12 04:34 | 44.57064 | -86.34545 | 4155 ft | 219 kts | 75° |
| 2026-04-12 04:34 | 44.57638 | -86.32560 | 4154 ft | 220 kts | 75° |
| 2026-04-12 04:35 | 44.58213 | -86.30571 | 4157 ft | 220 kts | 75° |
| 2026-04-12 04:35 | 44.58788 | -86.28581 | 4157 ft | 220 kts | 75° |
| 2026-04-12 04:35 | 44.59353 | -86.26624 | 4155 ft | 219 kts | 75° |
| 2026-04-12 04:35 | 44.59926 | -86.24646 | 4138 ft | 219 kts | 75° |
| 2026-04-12 04:36 | 44.60500 | -86.22664 | 4137 ft | 219 kts | 75° |
| 2026-04-12 04:36 | 44.61073 | -86.20685 | 4138 ft | 218 kts | 75° |
| 2026-04-12 04:36 | 44.61646 | -86.18721 | 4141 ft | 217 kts | 75° |
| 2026-04-12 04:36 | 44.62217 | -86.16760 | 4135 ft | 217 kts | 75° |
| 2026-04-12 04:37 | 44.62780 | -86.14797 | 4139 ft | 217 kts | 75° |
| 2026-04-12 04:37 | 44.63345 | -86.12844 | 4137 ft | 216 kts | 75° |
| 2026-04-12 04:37 | 44.63905 | -86.10894 | 4137 ft | 215 kts | 75° |
| 2026-04-12 04:37 | 44.64463 | -86.08950 | 4140 ft | 215 kts | 75° |
| 2026-04-12 04:38 | 44.65029 | -86.06995 | 4135 ft | 217 kts | 75° |
| 2026-04-12 04:38 | 44.65592 | -86.05038 | 4141 ft | 216 kts | 75° |
| 2026-04-12 04:38 | 44.66154 | -86.03082 | 4146 ft | 216 kts | 75° |
| 2026-04-12 04:38 | 44.66737 | -86.01127 | 4143 ft | 218 kts | 74° |
| 2026-04-12 04:39 | 44.67325 | -85.99166 | 4144 ft | 217 kts | 74° |
| 2026-04-12 04:39 | 44.67912 | -85.97215 | 4145 ft | 217 kts | 74° |
| 2026-04-12 04:39 | 44.68506 | -85.95271 | 4146 ft | 216 kts | 74° |
| 2026-04-12 04:39 | 44.69096 | -85.93327 | 4154 ft | 216 kts | 73° |
| 2026-04-12 04:40 | 44.69684 | -85.91381 | 4157 ft | 217 kts | 74° |
| 2026-04-12 04:40 | 44.70273 | -85.89422 | 4162 ft | 218 kts | 73° |
| 2026-04-12 04:40 | 44.70866 | -85.87422 | 3982 ft | 225 kts | 74° |
| 2026-04-12 04:40 | 44.71477 | -85.85382 | 3780 ft | 228 kts | 74° |
| 2026-04-12 04:41 | 44.72106 | -85.83323 | 3573 ft | 230 kts | 74° |
| 2026-04-12 04:41 | 44.72754 | -85.81256 | 3363 ft | 231 kts | 73° |
| 2026-04-12 04:41 | 44.73400 | -85.79214 | 3166 ft | 231 kts | 74° |
| 2026-04-12 04:41 | 44.74048 | -85.77164 | 2947 ft | 215 kts | 75° |
| 2026-04-12 04:42 | 44.74542 | -85.75408 | 2674 ft | 176 kts | 85° |
| 2026-04-12 04:42 | 44.74746 | -85.73848 | 2540 ft | 151 kts | 94° |
| 2026-04-12 04:42 | 44.74844 | -85.72385 | 2193 ft | 147 kts | 99° |
| 2026-04-12 04:43 | 44.74720 | -85.69752 | 1868 ft | 126 kts | 105° |
| 2026-04-12 04:43 | 44.74644 | -85.68541 | 1720 ft | 123 kts | 102° |
| 2026-04-12 04:43 | 44.74565 | -85.67330 | 1503 ft | 122 kts | 100° |
| 2026-04-12 04:43 | 44.74481 | -85.66232 | 1425 ft | 105 kts | 99° |
| 2026-04-12 04:44 | 44.74422 | -85.65229 | 1367 ft | 102 kts | 99° |
| 2026-04-12 04:44 | 44.74378 | -85.64236 | 1299 ft | 101 kts | 96° |
| 2026-04-12 04:44 | 44.74335 | -85.63264 | 1248 ft | 99 kts | 98° |
| 2026-04-12 04:44 | 44.74285 | -85.62317 | 1154 ft | 93 kts | 97° |
| 2026-04-12 04:45 | 44.74234 | -85.61412 | 1003 ft | 92 kts | 96° |
| 2026-04-12 04:45 | 44.74189 | -85.60524 | 879 ft | 90 kts | 94° |
| 2026-04-12 04:45 | 44.74146 | -85.59666 | 756 ft | 87 kts | 95° |
| 2026-04-12 04:45 | 44.74108 | -85.58814 | 636 ft | 86 kts | 94° |
| 2026-04-12 04:46 | 44.74080 | -85.58227 | 624 ft | 19 kts | 99° |
| 2026-04-12 04:46 | 44.74088 | -85.58239 | 627 ft | 9 kts | 262° |
| 2026-04-12 04:46 | 44.74126 | -85.58332 | 632 ft | 15 kts | 342° |
| 2026-04-12 04:46 | 44.74209 | -85.58407 | 621 ft | 13 kts | 314° |
| 2026-04-12 04:47 | 44.74263 | -85.58506 | 621 ft | 15 kts | 302° |
| 2026-04-12 04:47 | 44.74273 | -85.58657 | 621 ft | 15 kts | 267° |
| 2026-04-12 04:47 | 44.74270 | -85.58784 | 622 ft | 11 kts | 271° |
| 2026-04-12 04:47 | 44.74269 | -85.58887 | 621 ft | 10 kts | 269° |
| 2026-04-12 04:48 | 44.74275 | -85.58975 | 621 ft | 8 kts | 319° |
| 2026-04-12 04:48 | 44.74323 | -85.58976 | 621 ft | 4 kts | 289° |
| 2026-04-12 04:48 | 44.74304 | -85.58981 | 621 ft | 0 kts | 181° |
| 2026-04-12 04:50 | 44.74293 | -85.58981 | 627 ft | 6 kts | 181° |
| 2026-04-12 04:50 | 44.74271 | -85.59029 | 621 ft | 12 kts | 267° |
| 2026-04-12 04:50 | 44.74192 | -85.59068 | 622 ft | 12 kts | 186° |
| 2026-04-12 04:50 | 44.74133 | -85.59080 | 625 ft | 8 kts | 172° |
| 2026-04-12 04:51 | 44.74112 | -85.58960 | 624 ft | 44 kts | 94° |
| 2026-04-12 04:51 | 44.74070 | -85.58124 | 691 ft | 112 kts | 94° |
| 2026-04-12 04:51 | 44.74033 | -85.56974 | 1079 ft | 125 kts | 92° |
| 2026-04-12 04:51 | 44.74029 | -85.55622 | 1359 ft | 149 kts | 94° |
| 2026-04-12 04:52 | 44.74064 | -85.54055 | 1571 ft | 169 kts | 85° |
| 2026-04-12 04:52 | 44.74906 | -85.52905 | 1856 ft | 194 kts | 13° |
| 2026-04-12 04:52 | 44.76280 | -85.53196 | 1967 ft | 205 kts | 335° |
| 2026-04-12 04:52 | 44.77181 | -85.54665 | 2040 ft | 199 kts | 282° |
| 2026-04-12 04:53 | 44.77491 | -85.56507 | 2261 ft | 195 kts | 273° |
| 2026-04-12 04:53 | 44.77731 | -85.58416 | 2346 ft | 197 kts | 272° |
| 2026-04-12 04:53 | 44.77976 | -85.62199 | 2237 ft | 176 kts | 257° |
| 2026-04-12 04:54 | 44.77745 | -85.63659 | 2195 ft | 133 kts | 228° |
| 2026-04-12 04:54 | 44.77094 | -85.64116 | 2021 ft | 96 kts | 161° |
| 2026-04-12 04:54 | 44.76582 | -85.63554 | 1727 ft | 92 kts | 152° |
| 2026-04-12 04:54 | 44.75993 | -85.63198 | 1496 ft | 91 kts | 159° |
| 2026-04-12 04:55 | 44.75417 | -85.62858 | 1330 ft | 89 kts | 158° |
| 2026-04-12 04:55 | 44.74897 | -85.62434 | 1181 ft | 86 kts | 140° |
| 2026-04-12 04:55 | 44.74495 | -85.61808 | 1016 ft | 88 kts | 124° |
| 2026-04-12 04:55 | 44.74248 | -85.60998 | 909 ft | 92 kts | 106° |
| 2026-04-12 04:56 | 44.74170 | -85.60116 | 818 ft | 90 kts | 95° |
| 2026-04-12 04:56 | 44.74128 | -85.59251 | 694 ft | 87 kts | 95° |
| 2026-04-12 04:56 | 44.74090 | -85.58453 | 623 ft | 69 kts | 95° |
| 2026-04-12 04:56 | 44.74067 | -85.57923 | 627 ft | 41 kts | 91° |
| 2026-04-12 04:57 | 44.74105 | -85.57784 | 623 ft | 10 kts | 4° |
| 2026-04-12 04:57 | 44.74173 | -85.57791 | 621 ft | 10 kts | 307° |
| 2026-04-12 04:57 | 44.74185 | -85.57871 | 627 ft | 7 kts | 276° |
| 2026-04-12 04:57 | 44.74191 | -85.57957 | 621 ft | 15 kts | 273° |
| 2026-04-12 04:58 | 44.74244 | -85.58066 | 625 ft | 15 kts | 2° |
| 2026-04-12 04:58 | 44.74276 | -85.58107 | 625 ft | 0 kts | 273° |